createdAt,value
2022-12-13T00:04:00.641Z,180.00
2022-12-13T00:19:00.513Z,180.00
2022-12-13T00:34:00.421Z,180.00
2022-12-13T00:49:00.212Z,180.00
2022-12-13T01:04:00.462Z,180.00
2022-12-13T01:19:00.602Z,180.00
2022-12-13T01:34:00.344Z,180.00
2022-12-13T01:49:00.306Z,180.00
2022-12-13T02:04:00.735Z,180.00
2022-12-13T02:19:00.505Z,180.00
2022-12-13T02:34:00.542Z,180.00
2022-12-13T02:49:02.153Z,180.00
2022-12-13T03:04:01.039Z,180.00
2022-12-13T03:19:00.553Z,180.00
2022-12-13T03:34:00.671Z,180.00
2022-12-13T03:49:00.710Z,180.00
2022-12-13T04:04:00.664Z,180.00
2022-12-13T04:19:00.831Z,180.00
2022-12-13T04:34:00.909Z,180.00
2022-12-13T04:49:00.869Z,180.00
2022-12-13T05:04:00.729Z,180.00
2022-12-13T05:19:00.790Z,180.00
2022-12-13T05:34:01.341Z,180.00
2022-12-13T05:49:01.051Z,183.94
2022-12-13T06:04:00.814Z,331.77
2022-12-13T06:19:04.253Z,315.00
2022-12-13T06:34:00.909Z,315.00
2022-12-13T06:49:01.128Z,315.00
2022-12-13T07:04:00.916Z,233.22
2022-12-13T07:19:01.644Z,225.00
2022-12-13T07:34:01.154Z,225.00
2022-12-13T07:49:01.899Z,225.00
2022-12-13T08:04:01.224Z,225.00
2022-12-13T08:19:04.339Z,225.00
2022-12-13T08:34:01.184Z,225.00
2022-12-13T08:49:01.306Z,225.00
2022-12-13T09:04:01.291Z,225.00
2022-12-13T09:19:01.275Z,203.53
2022-12-13T09:34:01.287Z,142.49
2022-12-13T09:49:02.196Z,135.00
2022-12-13T10:04:01.206Z,126.37
2022-12-13T10:19:01.436Z,137.55
2022-12-13T10:34:01.432Z,168.12
2022-12-13T10:49:01.387Z,206.79
2022-12-13T11:04:02.076Z,160.92
2022-12-13T11:19:01.451Z,116.46
2022-12-13T11:34:01.415Z,117.95
2022-12-13T11:49:01.561Z,128.60
2022-12-13T12:04:01.727Z,107.38
2022-12-13T12:19:02.046Z,161.83
2022-12-13T12:34:01.765Z,86.92
2022-12-13T12:49:02.621Z,94.73
2022-12-13T13:04:02.033Z,87.18
2022-12-13T13:19:01.453Z,70.41
2022-12-13T13:34:01.474Z,88.80
2022-12-13T13:49:01.445Z,74.56
2022-12-13T14:04:01.507Z,93.72
2022-12-13T14:19:01.500Z,85.01
2022-12-13T14:34:01.551Z,88.19
2022-12-13T14:49:03.806Z,93.75
2022-12-13T15:04:01.505Z,92.03
2022-12-13T15:19:01.804Z,92.08
2022-12-13T15:34:01.591Z,96.75
2022-12-13T15:49:01.362Z,88.87
2022-12-13T16:04:01.308Z,86.86
2022-12-13T16:19:01.327Z,88.36
2022-12-13T16:34:01.530Z,85.52
2022-12-13T16:49:01.427Z,81.82
2022-12-13T17:04:05.424Z,91.01
2022-12-13T17:19:01.621Z,85.84
2022-12-13T17:34:01.620Z,90.79
2022-12-13T17:49:01.586Z,87.43
2022-12-13T18:04:01.467Z,90.06
2022-12-13T18:19:01.575Z,108.07
2022-12-13T18:34:01.547Z,101.87
2022-12-13T18:49:01.442Z,103.02
2022-12-13T19:04:01.530Z,103.46
2022-12-13T19:19:01.563Z,95.90
2022-12-13T19:34:01.497Z,90.50
2022-12-13T19:49:01.650Z,88.87
2022-12-13T20:04:01.667Z,86.67
2022-12-13T20:19:01.556Z,89.42
2022-12-13T20:34:01.471Z,91.89
2022-12-13T20:49:01.760Z,98.48
2022-12-13T21:04:01.527Z,89.18
2022-12-13T21:19:01.677Z,80.46
2022-12-13T21:34:01.671Z,77.58
2022-12-13T21:49:01.579Z,87.45
2022-12-13T22:04:06.683Z,85.11
2022-12-13T22:19:01.735Z,95.29
2022-12-13T22:34:01.433Z,90.41
2022-12-13T22:49:01.733Z,86.66
2022-12-13T23:04:01.829Z,82.27
2022-12-13T23:19:39.192Z,79.40
2022-12-13T23:34:01.500Z,89.18
2022-12-13T23:49:01.573Z,91.00
